Time;durP1;ratioP1;P1;durP2;ratioP2;P2;SDS_P1;SDS_P2;PMS_P1;PMS_P2;Temp;Humidity;BMP_temperature;BMP_pressure;BME280_temperature;BME280_humidity;BME280_pressure;Samples;Min_cycle;Max_cycle;Signal;HPM_P1;HPM_P2
2021/12/19 00:00:16;;;;;;;12.10;6.35;;;8.70;98.90;;;;;;5130697;27;36315;-58
2021/12/19 00:03:02;;;;;;;14.55;5.70;;;8.70;98.90;;;;;;5130998;27;37602;-57
2021/12/19 00:08:44;;;;;;;14.82;6.13;;;8.70;99.00;;;;;;5132023;27;38751;-57
2021/12/19 00:11:13;;;;;;;12.07;6.28;;;8.70;99.00;;;;;;5131098;27;36651;-58
2021/12/19 00:13:41;;;;;;;13.50;6.00;;;8.70;99.00;;;;;;5131860;27;37456;-57
2021/12/19 00:16:09;;;;;;;8.75;5.32;;;8.70;99.00;;;;;;5130021;27;37593;-57
2021/12/19 00:18:37;;;;;;;9.35;4.95;;;8.70;99.00;;;;;;5131787;27;36701;-57
2021/12/19 00:21:06;;;;;;;7.97;3.75;;;8.70;99.00;;;;;;5129225;27;37108;-57
2021/12/19 00:23:33;;;;;;;9.63;3.88;;;8.70;98.90;;;;;;5130379;27;38827;-58
2021/12/19 00:26:00;;;;;;;7.30;3.28;;;8.70;98.80;;;;;;5130339;27;38971;-58
2021/12/19 00:28:30;;;;;;;7.55;3.08;;;8.70;98.80;;;;;;5130475;27;35982;-58
2021/12/19 00:30:57;;;;;;;7.50;3.10;;;8.70;98.80;;;;;;5129855;27;36679;-57
2021/12/19 00:33:24;;;;;;;4.60;1.95;;;8.70;98.70;;;;;;5130836;27;37858;-58
2021/12/19 00:35:52;;;;;;;6.60;2.50;;;8.70;98.60;;;;;;5130507;27;37962;-58
2021/12/19 00:38:19;;;;;;;5.85;2.00;;;8.70;98.60;;;;;;5130145;27;36121;-59
2021/12/19 00:40:47;;;;;;;4.72;1.75;;;8.60;98.60;;;;;;5130846;27;39657;-58
2021/12/19 00:43:24;;;;;;;7.00;2.15;;;8.70;98.70;;;;;;5130218;27;38167;-57
2021/12/19 00:45:54;;;;;;;4.25;1.42;;;8.60;98.80;;;;;;5130189;27;37853;-58
2021/12/19 00:48:21;;;;;;;4.10;1.35;;;8.70;98.80;;;;;;5129710;27;39836;-58
2021/12/19 00:50:49;;;;;;;4.22;1.50;;;8.60;98.80;;;;;;5130228;27;36559;-58
2021/12/19 00:53:19;;;;;;;4.30;1.00;;;8.70;98.90;;;;;;5130277;27;38110;-58
2021/12/19 00:55:46;;;;;;;3.08;1.05;;;8.70;98.90;;;;;;5130269;27;38539;-57
2021/12/19 00:58:13;;;;;;;3.13;1.20;;;8.70;98.80;;;;;;5130586;27;37180;-57
2021/12/19 01:00:41;;;;;;;7.07;1.17;;;8.60;98.80;;;;;;5129681;27;37815;-58
2021/12/19 01:03:09;;;;;;;4.40;0.80;;;8.60;98.80;;;;;;5129106;27;37710;-57
2021/12/19 01:05:40;;;;;;;2.40;0.70;;;8.60;98.80;;;;;;5129571;27;37998;-57
2021/12/19 01:08:08;;;;;;;5.95;1.30;;;8.60;98.80;;;;;;5129538;27;36190;-57
2021/12/19 01:10:36;;;;;;;3.33;0.80;;;8.60;98.80;;;;;;5129656;27;36383;-58
2021/12/19 01:13:04;;;;;;;2.90;0.90;;;8.60;98.80;;;;;;5129054;27;37383;-58
2021/12/19 01:15:31;;;;;;;3.30;0.98;;;8.70;99.10;;;;;;5128792;27;38985;-58
2021/12/19 01:17:59;;;;;;;3.65;1.10;;;8.60;98.80;;;;;;5129817;27;38737;-58
2021/12/19 01:20:30;;;;;;;2.28;0.70;;;8.60;99.10;;;;;;5128294;27;35191;-62
2021/12/19 01:22:58;;;;;;;3.53;0.90;;;8.60;98.90;;;;;;5129604;27;39184;-62
2021/12/19 01:25:25;;;;;;;2.15;0.80;;;8.60;98.90;;;;;;5129783;27;39093;-63
2021/12/19 01:27:53;;;;;;;1.98;0.45;;;8.60;98.90;;;;;;5129441;27;38709;-62
2021/12/19 01:30:20;;;;;;;4.07;0.88;;;8.60;98.90;;;;;;5130062;27;35477;-63
2021/12/19 01:32:48;;;;;;;0.63;0.38;;;8.50;98.80;;;;;;5130335;27;38840;-62
2021/12/19 01:35:18;;;;;;;1.13;0.30;;;8.50;98.90;;;;;;5129689;27;37813;-62
2021/12/19 01:37:48;;;;;;;1.80;0.60;;;8.50;98.90;;;;;;5129543;27;35956;-62
2021/12/19 01:40:18;;;;;;;1.83;0.40;;;8.50;98.90;;;;;;5128652;27;37605;-63
2021/12/19 01:42:48;;;;;;;2.03;0.50;;;8.50;98.90;;;;;;5128605;27;37063;-63
2021/12/19 01:45:22;;;;;;;3.80;0.77;;;8.50;98.90;;;;;;5129176;27;38869;-62
2021/12/19 01:47:50;;;;;;;4.38;0.90;;;8.50;98.90;;;;;;5128933;27;37627;-62
2021/12/19 01:50:18;;;;;;;4.22;0.75;;;8.50;99.00;;;;;;5129233;27;35339;-62
2021/12/19 01:52:47;;;;;;;6.60;1.40;;;8.50;98.90;;;;;;5129185;27;37243;-62
2021/12/19 01:55:14;;;;;;;5.95;1.20;;;8.50;98.90;;;;;;5128932;27;38311;-63
2021/12/19 01:57:42;;;;;;;4.22;1.20;;;8.50;98.90;;;;;;5128397;27;37870;-63
2021/12/19 02:00:19;;;;;;;5.72;1.33;;;8.50;98.90;;;;;;5129479;27;36876;-62
2021/12/19 02:02:46;;;;;;;3.65;1.20;;;8.50;98.90;;;;;;5130164;27;37368;-62
2021/12/19 02:05:14;;;;;;;5.55;1.20;;;8.50;98.90;;;;;;5127534;27;37207;-62
2021/12/19 02:07:46;;;;;;;3.67;1.13;;;8.50;99.00;;;;;;5130106;27;39316;-62
2021/12/19 02:10:17;;;;;;;3.13;0.65;;;8.50;99.00;;;;;;5128833;27;35045;-63
2021/12/19 02:12:46;;;;;;;4.32;0.90;;;8.50;99.00;;;;;;5128756;27;38113;-62
2021/12/19 02:15:17;;;;;;;3.65;0.70;;;8.50;99.00;;;;;;5128213;27;34728;-62
2021/12/19 02:17:45;;;;;;;2.78;0.80;;;8.40;98.90;;;;;;5129301;27;37425;-62
2021/12/19 02:20:14;;;;;;;1.10;0.45;;;8.40;98.90;;;;;;5129228;27;37506;-62
2021/12/19 02:22:41;;;;;;;4.63;0.60;;;8.40;98.80;;;;;;5129340;27;37713;-62
2021/12/19 02:25:10;;;;;;;1.50;0.60;;;8.40;98.80;;;;;;5128331;27;39028;-62
2021/12/19 02:27:38;;;;;;;2.60;0.65;;;8.40;98.80;;;;;;5127711;27;37376;-62
2021/12/19 02:30:07;;;;;;;1.17;0.40;;;8.40;98.70;;;;;;5129639;27;38454;-62
2021/12/19 02:32:36;;;;;;;1.85;0.57;;;8.40;98.70;;;;;;5128983;27;37224;-62
2021/12/19 02:35:07;;;;;;;3.10;0.65;;;8.40;98.70;;;;;;5128406;27;38087;-60
2021/12/19 02:38:12;;;;;;;1.52;0.50;;;8.40;98.80;;;;;;5128946;27;37424;-60
2021/12/19 02:48:53;;;;;;;2.67;0.60;;;8.30;98.90;;;;;;5130072;27;39788;-62
2021/12/19 02:51:20;;;;;;;4.05;0.85;;;8.30;98.90;;;;;;5128946;27;36704;-62
2021/12/19 02:53:49;;;;;;;2.22;0.70;;;8.20;98.90;;;;;;5128553;27;38451;-62
2021/12/19 02:56:17;;;;;;;2.63;0.55;;;8.20;99.00;;;;;;5129649;27;37789;-60
2021/12/19 02:58:44;;;;;;;2.78;0.50;;;8.20;99.00;;;;;;5129200;27;37404;-60
2021/12/19 03:01:15;;;;;;;1.00;0.40;;;8.20;99.10;;;;;;5128190;27;36682;-60
2021/12/19 03:03:42;;;;;;;1.42;0.47;;;8.30;99.10;;;;;;5128262;27;36977;-60
2021/12/19 03:06:10;;;;;;;1.27;0.43;;;8.20;99.00;;;;;;5128564;27;38398;-60
2021/12/19 03:08:42;;;;;;;3.20;0.45;;;8.20;99.00;;;;;;5128508;27;36174;-60
2021/12/19 03:19:26;;;;;;;5.35;1.23;;;8.20;98.90;;;;;;5128780;27;38144;-60
2021/12/19 03:21:53;;;;;;;3.63;1.42;;;8.20;98.90;;;;;;5127915;27;36076;-60
2021/12/19 03:24:20;;;;;;;6.32;1.40;;;8.20;99.00;;;;;;5128111;27;37551;-60
2021/12/19 03:26:49;;;;;;;3.63;1.40;;;8.20;99.00;;;;;;5131940;27;36451;-59
2021/12/19 03:29:16;;;;;;;6.10;1.30;;;8.30;99.00;;;;;;5131100;27;36183;-62
2021/12/19 03:31:44;;;;;;;4.70;1.30;;;8.20;99.00;;;;;;5132503;27;36260;-62
2021/12/19 03:34:12;;;;;;;7.03;1.67;;;8.30;99.00;;;;;;5131759;27;37433;-62
2021/12/19 03:36:39;;;;;;;5.32;1.55;;;8.20;99.00;;;;;;5131326;27;37813;-62
2021/12/19 03:39:14;;;;;;;6.07;1.65;;;8.20;99.10;;;;;;5131069;27;37109;-62
2021/12/19 03:41:42;;;;;;;3.88;1.30;;;8.20;99.00;;;;;;5130500;27;36691;-63
2021/12/19 03:44:11;;;;;;;6.13;1.40;;;8.20;99.00;;;;;;5130982;27;38681;-62
2021/12/19 03:46:38;;;;;;;5.10;1.10;;;8.20;99.00;;;;;;5130847;27;36335;-62
2021/12/19 03:49:06;;;;;;;4.70;1.00;;;8.20;99.00;;;;;;5132019;27;37135;-62
2021/12/19 03:51:33;;;;;;;6.60;0.77;;;8.20;99.00;;;;;;5130485;27;36426;-60
2021/12/19 03:54:00;;;;;;;5.63;1.52;;;8.20;99.20;;;;;;5130647;27;40039;-60
2021/12/19 03:56:28;;;;;;;2.83;0.40;;;8.20;99.00;;;;;;5131805;27;36277;-60
2021/12/19 03:58:56;;;;;;;5.18;1.10;;;8.20;98.90;;;;;;5131118;27;37267;-59
2021/12/19 04:01:24;;;;;;;2.90;0.70;;;8.30;98.90;;;;;;5131832;27;35118;-60
2021/12/19 04:03:52;;;;;;;4.55;1.58;;;8.30;98.90;;;;;;5131681;27;39148;-62
2021/12/19 04:06:19;;;;;;;4.32;1.10;;;8.20;98.80;;;;;;5131635;27;38818;-62
2021/12/19 04:08:47;;;;;;;4.95;1.30;;;8.20;98.80;;;;;;5131498;27;37324;-63
2021/12/19 04:11:15;;;;;;;11.60;2.30;;;8.20;98.80;;;;;;5131178;27;36375;-62
2021/12/19 04:13:42;;;;;;;6.43;2.03;;;8.20;98.90;;;;;;5131225;27;36925;-62
2021/12/19 04:16:09;;;;;;;5.35;2.05;;;8.20;98.90;;;;;;5131081;27;37505;-62
2021/12/19 04:18:38;;;;;;;6.97;2.17;;;8.20;99.00;;;;;;5131080;27;36123;-62
2021/12/19 04:21:05;;;;;;;12.02;2.20;;;8.20;99.00;;;;;;5131450;27;35281;-62
2021/12/19 04:23:33;;;;;;;7.60;2.30;;;8.20;99.00;;;;;;5131091;27;40537;-62
2021/12/19 04:26:00;;;;;;;6.13;1.73;;;8.20;99.00;;;;;;5130939;27;37882;-60
2021/12/19 04:28:27;;;;;;;8.23;2.17;;;8.20;99.00;;;;;;5130981;27;37338;-60
2021/12/19 04:30:55;;;;;;;8.60;2.17;;;8.30;99.00;;;;;;5131741;27;36308;-60
2021/12/19 04:33:23;;;;;;;9.85;2.10;;;8.20;99.00;;;;;;5131511;27;36421;-60
2021/12/19 04:35:58;;;;;;;10.00;2.72;;;8.20;99.00;;;;;;5131179;27;37760;-59
2021/12/19 04:44:38;;;;;;;15.75;2.55;;;8.30;98.90;;;;;;5089953;27;36805;-60
2021/12/19 04:55:45;;;;;;;14.55;4.10;;;8.30;98.70;;;;;;5129939;27;38268;-62
2021/12/19 05:01:08;;;;;;;19.27;4.68;;;8.30;98.60;;;;;;5127174;27;38990;-62
2021/12/19 05:03:44;;;;;;;16.23;3.35;;;8.30;98.80;;;;;;5129816;27;37091;-62
2021/12/19 05:06:19;;;;;;;17.40;4.07;;;8.30;98.60;;;;;;5130599;27;37214;-62
2021/12/19 05:14:20;;;;;;;16.52;4.13;;;8.30;98.50;;;;;;5130535;27;36332;-62
2021/12/19 05:16:49;;;;;;;26.45;6.32;;;8.30;98.50;;;;;;5129770;27;37174;-60
2021/12/19 05:19:25;;;;;;;22.95;6.10;;;8.30;98.50;;;;;;5130278;27;37453;-60
2021/12/19 05:21:56;;;;;;;16.58;5.65;;;8.30;98.50;;;;;;5129916;27;38682;-60
2021/12/19 05:27:11;;;;;;;20.05;6.55;;;8.30;98.50;;;;;;5129130;27;38881;-62
2021/12/19 05:29:39;;;;;;;18.70;7.95;;;8.30;98.50;;;;;;5127774;27;38243;-62
2021/12/19 05:32:08;;;;;;;24.40;7.78;;;8.40;98.40;;;;;;5128476;27;38359;-62
2021/12/19 05:34:36;;;;;;;17.27;6.88;;;8.30;98.30;;;;;;5126766;27;37033;-62
2021/12/19 05:45:20;;;;;;;17.38;5.68;;;8.30;98.30;;;;;;5126886;27;38119;-62
2021/12/19 05:47:49;;;;;;;24.08;5.70;;;8.30;98.30;;;;;;5127197;27;38600;-62
2021/12/19 05:50:18;;;;;;;19.30;4.88;;;8.30;98.30;;;;;;5126674;27;37875;-62
2021/12/19 05:52:45;;;;;;;16.35;4.65;;;8.30;98.30;;;;;;5127914;27;37417;-62
2021/12/19 05:55:14;;;;;;;14.45;5.53;;;8.30;98.20;;;;;;5127652;27;35803;-62
2021/12/19 05:57:42;;;;;;;18.17;4.50;;;8.30;98.20;;;;;;5127986;27;36972;-60
2021/12/19 06:00:13;;;;;;;19.02;5.00;;;8.30;98.30;;;;;;5126378;27;38952;-60
2021/12/19 06:02:42;;;;;;;15.45;4.60;;;8.30;98.30;;;;;;5127312;27;37399;-60
2021/12/19 06:05:10;;;;;;;12.18;3.92;;;8.40;98.20;;;;;;5124994;27;36395;-60
2021/12/19 06:07:37;;;;;;;14.95;4.38;;;8.30;98.00;;;;;;5126581;27;37533;-60
2021/12/19 06:10:06;;;;;;;13.13;4.15;;;8.40;98.10;;;;;;5126517;27;36883;-60
2021/12/19 06:12:34;;;;;;;10.73;4.50;;;8.40;98.10;;;;;;5127037;27;36271;-60
2021/12/19 06:15:02;;;;;;;18.90;4.55;;;8.30;98.10;;;;;;5127229;27;36462;-60
2021/12/19 06:17:29;;;;;;;18.80;4.72;;;8.30;98.00;;;;;;5127513;27;37959;-60
2021/12/19 06:19:56;;;;;;;18.70;5.10;;;8.40;98.00;;;;;;5124745;27;37695;-60
2021/12/19 06:22:24;;;;;;;15.68;4.97;;;8.40;98.00;;;;;;5127033;27;36089;-60
2021/12/19 06:24:51;;;;;;;23.55;5.82;;;8.40;97.90;;;;;;5126758;27;37147;-60
2021/12/19 06:27:18;;;;;;;17.83;5.10;;;8.40;98.00;;;;;;5127121;27;37573;-62
2021/12/19 06:29:49;;;;;;;20.35;5.75;;;8.40;97.90;;;;;;5126577;27;38407;-62
2021/12/19 06:32:16;;;;;;;14.75;5.25;;;8.40;98.00;;;;;;5127484;27;37328;-62
2021/12/19 06:34:44;;;;;;;12.43;4.70;;;8.40;98.00;;;;;;5126956;27;36525;-62
2021/12/19 06:37:11;;;;;;;14.80;4.60;;;8.40;98.00;;;;;;5126018;27;36373;-62
2021/12/19 06:39:40;;;;;;;20.92;4.53;;;8.40;98.10;;;;;;5126424;27;39056;-62
2021/12/19 06:42:09;;;;;;;18.70;4.30;;;8.40;98.10;;;;;;5126069;27;38124;-60
2021/12/19 06:44:37;;;;;;;12.52;5.00;;;8.40;98.10;;;;;;5126520;27;36413;-60
2021/12/19 06:47:06;;;;;;;12.07;3.10;;;8.40;98.10;;;;;;5126933;27;39920;-60
2021/12/19 06:49:34;;;;;;;10.55;2.60;;;8.40;98.00;;;;;;5126264;27;36431;-60
2021/12/19 06:52:01;;;;;;;12.45;2.55;;;8.30;97.90;;;;;;5127017;27;39204;-60
2021/12/19 06:54:29;;;;;;;11.05;2.53;;;8.30;97.90;;;;;;5125016;27;37204;-62
2021/12/19 06:56:57;;;;;;;11.07;2.33;;;8.30;98.00;;;;;;5125226;27;38801;-62
2021/12/19 06:59:24;;;;;;;8.70;2.30;;;8.30;98.00;;;;;;5126609;27;37242;-60
2021/12/19 07:01:51;;;;;;;11.60;2.63;;;8.30;98.20;;;;;;5125994;27;38348;-60
2021/12/19 07:04:20;;;;;;;11.27;2.97;;;8.40;98.00;;;;;;5125941;27;36250;-60
2021/12/19 07:06:47;;;;;;;10.98;2.78;;;8.30;98.00;;;;;;5126826;27;37566;-60
2021/12/19 07:09:15;;;;;;;9.32;2.50;;;8.40;98.00;;;;;;5126788;27;37804;-60
2021/12/19 07:11:42;;;;;;;13.80;3.45;;;8.40;97.90;;;;;;5126354;27;37527;-60
2021/12/19 07:14:10;;;;;;;16.40;2.95;;;8.40;97.90;;;;;;5125678;27;35317;-60
2021/12/19 07:16:37;;;;;;;9.90;2.67;;;8.40;97.90;;;;;;5126556;27;38646;-60
2021/12/19 07:19:05;;;;;;;10.40;2.55;;;8.40;97.90;;;;;;5126794;27;39017;-60
2021/12/19 07:21:33;;;;;;;10.65;2.72;;;8.40;97.90;;;;;;5126365;27;37865;-60
2021/12/19 07:24:01;;;;;;;10.50;2.75;;;8.40;97.90;;;;;;5126510;27;36235;-60
2021/12/19 07:26:28;;;;;;;13.20;2.63;;;8.40;97.90;;;;;;5126476;27;37674;-60
2021/12/19 07:28:56;;;;;;;9.82;2.60;;;8.40;97.90;;;;;;5126268;27;38863;-60
2021/12/19 07:31:24;;;;;;;10.10;2.78;;;8.40;97.90;;;;;;5125980;27;38077;-60
2021/12/19 07:33:51;;;;;;;11.80;3.35;;;8.40;97.90;;;;;;5126217;27;38020;-60
2021/12/19 07:36:19;;;;;;;12.23;3.17;;;8.40;97.90;;;;;;5126450;27;38377;-60
2021/12/19 07:38:54;;;;;;;11.23;3.15;;;8.40;97.90;;;;;;5125997;27;38223;-60
2021/12/19 07:41:21;;;;;;;16.23;3.92;;;8.40;97.90;;;;;;5126645;27;37764;-60
2021/12/19 07:43:48;;;;;;;14.80;3.85;;;8.40;98.00;;;;;;5125810;27;36309;-62
2021/12/19 07:46:16;;;;;;;10.20;2.95;;;8.50;98.00;;;;;;5124814;27;38256;-62
2021/12/19 07:48:43;;;;;;;14.50;2.85;;;8.50;98.00;;;;;;5126523;27;37749;-60
2021/12/19 07:51:11;;;;;;;15.88;2.95;;;8.50;98.10;;;;;;5125515;27;37199;-60
2021/12/19 07:53:38;;;;;;;12.55;2.83;;;8.50;98.00;;;;;;5126454;27;36957;-60
2021/12/19 07:56:07;;;;;;;17.40;3.08;;;8.50;98.10;;;;;;5125199;27;38352;-60
2021/12/19 07:58:34;;;;;;;16.90;2.97;;;8.50;98.00;;;;;;5126382;27;38205;-60
2021/12/19 08:01:02;;;;;;;19.27;3.97;;;8.50;98.00;;;;;;5124392;27;37465;-60
2021/12/19 08:03:29;;;;;;;17.00;3.75;;;8.50;98.20;;;;;;5126033;27;36529;-60
2021/12/19 08:05:56;;;;;;;15.38;3.33;;;8.50;98.10;;;;;;5124108;27;38374;-61
2021/12/19 08:08:28;;;;;;;20.08;3.45;;;8.50;98.10;;;;;;5125544;27;36422;-62
2021/12/19 08:13:41;;;;;;;10.55;2.85;;;8.50;98.10;;;;;;5129473;27;37599;-62
2021/12/19 08:16:09;;;;;;;11.77;3.53;;;8.50;98.10;;;;;;5128814;27;37544;-60
2021/12/19 08:18:36;;;;;;;16.40;3.67;;;8.50;98.10;;;;;;5129148;27;38293;-60
2021/12/19 08:21:04;;;;;;;14.82;2.83;;;8.50;98.10;;;;;;5129163;27;38657;-60
2021/12/19 08:23:32;;;;;;;13.07;2.75;;;8.50;98.00;;;;;;5129594;27;37751;-60
2021/12/19 08:26:00;;;;;;;16.42;2.60;;;8.50;98.00;;;;;;5128084;27;38065;-60
2021/12/19 08:28:27;;;;;;;17.10;2.85;;;8.50;98.00;;;;;;5127768;27;36722;-60
2021/12/19 08:30:56;;;;;;;16.58;2.97;;;8.50;98.10;;;;;;5127680;27;38639;-60
2021/12/19 08:33:23;;;;;;;11.38;2.88;;;8.50;98.10;;;;;;5128222;27;36756;-61
2021/12/19 08:35:50;;;;;;;10.98;2.78;;;8.60;98.10;;;;;;5127613;27;38385;-62
2021/12/19 08:38:18;;;;;;;14.55;3.00;;;8.60;98.10;;;;;;5127558;27;36598;-62
2021/12/19 08:40:47;;;;;;;16.10;2.67;;;8.50;98.00;;;;;;5129101;27;37582;-62
2021/12/19 08:43:15;;;;;;;16.42;2.83;;;8.50;98.10;;;;;;5128016;27;35183;-62
2021/12/19 08:45:42;;;;;;;15.63;3.33;;;8.50;98.10;;;;;;5127728;27;38884;-60
2021/12/19 08:48:11;;;;;;;14.88;2.25;;;8.50;98.10;;;;;;5128080;27;38985;-60
2021/12/19 08:50:39;;;;;;;9.68;2.55;;;8.50;98.10;;;;;;5127736;27;37312;-60
2021/12/19 08:53:07;;;;;;;8.48;2.03;;;8.50;98.20;;;;;;5128175;27;37379;-60
2021/12/19 08:55:34;;;;;;;18.83;2.67;;;8.50;98.20;;;;;;5128896;27;36398;-60
2021/12/19 08:58:02;;;;;;;11.73;2.35;;;8.50;98.10;;;;;;5127069;27;37746;-60
2021/12/19 09:00:30;;;;;;;11.80;2.20;;;8.60;98.20;;;;;;5127148;27;37889;-62
2021/12/19 09:02:58;;;;;;;9.68;2.55;;;8.60;98.20;;;;;;5128694;27;36205;-62
2021/12/19 09:05:29;;;;;;;10.23;3.17;;;8.60;98.20;;;;;;5126648;27;36567;-62
2021/12/19 09:07:56;;;;;;;18.02;3.70;;;8.60;98.20;;;;;;5128883;27;39260;-62
2021/12/19 09:10:24;;;;;;;19.55;3.92;;;8.60;98.20;;;;;;5128233;27;38167;-62
2021/12/19 09:12:52;;;;;;;11.32;2.53;;;8.60;98.20;;;;;;5128340;27;37771;-62
2021/12/19 09:15:19;;;;;;;12.50;2.45;;;8.60;98.20;;;;;;5128057;27;38227;-62
2021/12/19 09:17:47;;;;;;;13.60;3.03;;;8.70;98.20;;;;;;5128258;27;39373;-62
2021/12/19 09:20:15;;;;;;;13.88;2.10;;;8.60;98.20;;;;;;5127982;27;37366;-62
2021/12/19 09:22:44;;;;;;;12.40;2.55;;;8.60;98.20;;;;;;5127597;27;37551;-62
2021/12/19 09:25:12;;;;;;;11.65;2.58;;;8.70;98.30;;;;;;5127286;27;37423;-60
2021/12/19 09:27:40;;;;;;;14.52;2.75;;;8.60;98.30;;;;;;5125195;27;38138;-60
2021/12/19 09:30:08;;;;;;;14.38;3.28;;;8.70;98.30;;;;;;5128310;27;36396;-60
2021/12/19 09:32:35;;;;;;;12.90;2.70;;;8.70;98.20;;;;;;5127809;27;35247;-61
2021/12/19 09:35:03;;;;;;;11.73;2.22;;;8.80;98.50;;;;;;5127746;27;37670;-62
2021/12/19 09:37:30;;;;;;;20.02;3.10;;;8.70;98.20;;;;;;5126537;27;38850;-62
2021/12/19 09:40:02;;;;;;;13.02;2.63;;;8.70;98.10;;;;;;5127824;27;37249;-62
2021/12/19 09:42:33;;;;;;;13.57;3.08;;;8.80;98.20;;;;;;5127911;27;37195;-62
2021/12/19 09:45:02;;;;;;;15.27;2.50;;;8.80;98.10;;;;;;5124542;27;36285;-62
2021/12/19 09:47:29;;;;;;;11.85;3.28;;;8.80;98.00;;;;;;5127292;27;37515;-62
2021/12/19 09:49:58;;;;;;;9.85;2.00;;;8.80;98.00;;;;;;5126690;27;38279;-60
2021/12/19 09:52:27;;;;;;;16.17;2.67;;;8.80;98.00;;;;;;5126823;27;36464;-60
2021/12/19 09:54:55;;;;;;;16.92;2.85;;;8.80;98.20;;;;;;5127387;27;37271;-60
2021/12/19 09:57:24;;;;;;;14.18;2.50;;;8.80;98.00;;;;;;5127662;27;37825;-60
2021/12/19 09:59:52;;;;;;;15.48;3.47;;;8.80;98.00;;;;;;5126742;27;39792;-60
2021/12/19 10:02:19;;;;;;;11.27;2.40;;;8.90;98.00;;;;;;5127427;27;36767;-60
2021/12/19 10:04:47;;;;;;;9.80;2.60;;;8.80;98.00;;;;;;5126494;27;38109;-60
2021/12/19 10:07:17;;;;;;;15.40;3.28;;;8.90;98.00;;;;;;5123854;27;36915;-61
2021/12/19 10:09:57;;;;;;;10.15;2.95;;;8.80;98.00;;;;;;5124873;27;37489;-60
2021/12/19 10:12:48;;;;;;;14.52;2.55;;;8.90;98.10;;;;;;5126169;27;36997;-61
2021/12/19 10:15:19;;;;;;;21.00;3.30;;;8.80;98.00;;;;;;5126752;27;37666;-61
2021/12/19 10:17:47;;;;;;;18.25;2.97;;;8.80;98.30;;;;;;5126374;27;37586;-61
2021/12/19 10:20:16;;;;;;;15.93;2.88;;;8.80;98.10;;;;;;5126806;27;37067;-60
2021/12/19 10:22:45;;;;;;;22.13;2.92;;;8.80;98.30;;;;;;5127592;27;37297;-60
2021/12/19 10:25:18;;;;;;;22.73;2.90;;;8.80;98.00;;;;;;5127484;27;37583;-59
2021/12/19 10:27:48;;;;;;;17.00;2.33;;;8.80;98.00;;;;;;5126059;27;37574;-60
2021/12/19 10:30:22;;;;;;;14.38;2.78;;;8.80;98.00;;;;;;5125862;27;36171;-60
2021/12/19 10:32:59;;;;;;;15.57;2.38;;;8.70;97.90;;;;;;5126909;27;36402;-60
2021/12/19 10:35:30;;;;;;;17.25;3.13;;;8.70;97.80;;;;;;5125315;27;37573;-60
2021/12/19 10:37:58;;;;;;;13.57;2.13;;;8.70;97.80;;;;;;5126792;27;37774;-60
2021/12/19 10:40:26;;;;;;;15.63;2.67;;;8.70;97.70;;;;;;5126902;27;37185;-60
2021/12/19 10:43:00;;;;;;;14.75;2.92;;;8.70;97.50;;;;;;5126526;27;35202;-62
2021/12/19 10:45:33;;;;;;;12.25;3.03;;;8.70;97.40;;;;;;5124814;27;38371;-62
2021/12/19 10:48:25;;;;;;;;;;;8.70;97.40;;;;;;5126757;27;37720;-61
2021/12/19 10:50:55;;;;;;;16.08;2.83;;;8.60;97.10;;;;;;5127246;27;38030;-61
2021/12/19 10:53:31;;;;;;;14.63;3.05;;;8.70;97.40;;;;;;5125777;27;37404;-61
2021/12/19 10:55:59;;;;;;;13.55;3.65;;;8.70;97.50;;;;;;5125969;27;36392;-61
2021/12/19 10:58:42;;;;;;;15.82;2.80;;;8.70;97.40;;;;;;5125175;27;38520;-61
2021/12/19 11:01:22;;;;;;;20.80;3.47;;;8.80;97.40;;;;;;5125751;27;38920;-61
2021/12/19 11:03:57;;;;;;;11.60;2.58;;;8.80;97.40;;;;;;5126179;27;36924;-61
2021/12/19 11:06:28;;;;;;;17.40;2.63;;;8.90;97.40;;;;;;5125509;27;38082;-61
2021/12/19 11:08:58;;;;;;;8.68;2.10;;;8.90;97.40;;;;;;5126143;27;38494;-61
2021/12/19 11:11:41;;;;;;;13.52;3.03;;;8.90;97.40;;;;;;5126541;27;36877;-60
2021/12/19 11:14:12;;;;;;;18.80;3.22;;;8.90;97.30;;;;;;5126644;27;36015;-60
2021/12/19 11:16:41;;;;;;;16.92;2.40;;;9.00;97.40;;;;;;5126336;27;38314;-60
2021/12/19 11:19:09;;;;;;;11.35;2.25;;;8.90;97.20;;;;;;5124483;27;40163;-60
2021/12/19 11:21:37;;;;;;;15.50;2.40;;;9.00;97.20;;;;;;5125335;27;37695;-59
2021/12/19 11:24:07;;;;;;;14.05;2.80;;;9.00;97.20;;;;;;5125185;27;37894;-60
2021/12/19 11:26:34;;;;;;;17.45;2.72;;;9.00;97.10;;;;;;5126428;27;38086;-60
2021/12/19 11:29:02;;;;;;;12.88;3.22;;;9.10;97.00;;;;;;5123727;27;37619;-60
2021/12/19 11:31:32;;;;;;;15.60;2.78;;;9.10;96.90;;;;;;5125279;27;37391;-60
2021/12/19 11:34:16;;;;;;;18.33;3.03;;;9.00;96.80;;;;;;5125254;27;39273;-60
2021/12/19 11:36:46;;;;;;;17.60;2.97;;;9.10;96.70;;;;;;5125510;27;38668;-60
2021/12/19 11:39:15;;;;;;;18.83;2.95;;;9.10;96.70;;;;;;5125205;27;38646;-60
2021/12/19 11:42:02;;;;;;;19.05;2.75;;;9.10;96.60;;;;;;5125429;27;37568;-60
2021/12/19 11:44:34;;;;;;;18.17;2.97;;;9.10;96.60;;;;;;5123928;27;37180;-60
2021/12/19 11:47:09;;;;;;;20.77;3.65;;;9.10;96.50;;;;;;5127828;27;39166;-60
2021/12/19 11:49:37;;;;;;;13.30;2.80;;;9.20;96.50;;;;;;5128707;27;37839;-60
2021/12/19 11:52:24;;;;;;;16.73;2.40;;;9.20;96.50;;;;;;5128969;27;37711;-60
2021/12/19 11:55:23;;;;;;;21.02;3.20;;;9.20;96.40;;;;;;5128623;27;37039;-60
2021/12/19 11:58:28;;;;;;;19.20;2.90;;;9.20;96.40;;;;;;5129045;27;36261;-60
2021/12/19 12:01:04;;;;;;;17.38;2.88;;;9.20;96.30;;;;;;5129544;27;38411;-61
2021/12/19 12:03:49;;;;;;;20.55;4.78;;;9.20;96.40;;;;;;5128793;27;38264;-61
2021/12/19 12:06:32;;;;;;;26.38;4.35;;;9.20;96.40;;;;;;5127761;27;35268;-62
2021/12/19 12:09:39;;;;;;;20.57;3.77;;;9.20;96.30;;;;;;5128991;27;38426;-62
2021/12/19 12:12:35;;;;;;;15.48;3.15;;;9.20;96.20;;;;;;5128544;27;37948;-62
2021/12/19 12:15:08;;;;;;;17.77;3.08;;;9.20;96.30;;;;;;5129096;27;38033;-62
2021/12/19 12:17:46;;;;;;;17.42;3.55;;;9.20;96.20;;;;;;5129217;27;36432;-61
2021/12/19 12:20:29;;;;;;;23.90;4.63;;;9.20;96.20;;;;;;5129021;27;38327;-60
2021/12/19 12:23:00;;;;;;;18.38;3.58;;;9.20;96.10;;;;;;5128482;27;37419;-60
2021/12/19 12:25:41;;;;;;;24.75;4.00;;;9.20;96.20;;;;;;5129099;27;37824;-60
2021/12/19 12:28:10;;;;;;;20.45;3.97;;;9.20;96.10;;;;;;5128202;27;37272;-60
2021/12/19 12:30:40;;;;;;;16.20;2.83;;;9.20;96.10;;;;;;5128557;27;37883;-60
2021/12/19 12:33:10;;;;;;;22.20;3.63;;;9.20;96.00;;;;;;5129289;27;38688;-60
2021/12/19 12:35:41;;;;;;;19.83;4.50;;;9.20;96.10;;;;;;5127824;27;37359;-60
2021/12/19 12:38:09;;;;;;;17.33;2.92;;;9.30;96.10;;;;;;5128408;27;39179;-60
2021/12/19 12:40:53;;;;;;;18.63;2.85;;;9.20;96.00;;;;;;5129061;27;37860;-60
2021/12/19 12:43:22;;;;;;;15.27;2.75;;;9.20;95.90;;;;;;5127872;27;38914;-60
2021/12/19 12:46:04;;;;;;;16.70;3.85;;;9.20;95.80;;;;;;5128248;27;37318;-60
2021/12/19 12:49:00;;;;;;;17.92;4.18;;;9.30;95.90;;;;;;5128469;27;37005;-60
2021/12/19 12:51:32;;;;;;;16.42;3.08;;;9.30;95.80;;;;;;5128685;27;37589;-60
2021/12/19 12:54:03;;;;;;;21.85;3.45;;;9.30;95.80;;;;;;5128427;27;38578;-60
2021/12/19 12:56:35;;;;;;;18.42;2.65;;;9.30;95.70;;;;;;5127691;27;37810;-59
2021/12/19 12:59:04;;;;;;;16.55;2.35;;;9.30;95.50;;;;;;5127257;27;36464;-60
2021/12/19 13:01:40;;;;;;;24.67;3.40;;;9.20;95.30;;;;;;5127011;27;37680;-60
2021/12/19 13:04:14;;;;;;;18.77;2.92;;;9.20;95.20;;;;;;5128477;27;37732;-60
2021/12/19 13:06:49;;;;;;;10.82;2.70;;;9.20;95.00;;;;;;5128756;27;36125;-60
2021/12/19 13:09:20;;;;;;;14.63;2.55;;;9.20;94.80;;;;;;5127758;27;36443;-59
2021/12/19 13:11:50;;;;;;;16.73;2.85;;;9.10;94.90;;;;;;5127311;27;37371;-60
2021/12/19 13:14:22;;;;;;;14.52;3.17;;;9.10;95.00;;;;;;5128051;27;37063;-60
2021/12/19 13:16:52;;;;;;;20.50;3.30;;;9.10;95.10;;;;;;5127638;27;36940;-60
2021/12/19 13:19:41;;;;;;;18.00;3.38;;;9.20;95.10;;;;;;5127398;27;37036;-60
2021/12/19 13:22:11;;;;;;;18.27;3.15;;;9.20;95.00;;;;;;5128519;27;37501;-61
2021/12/19 13:24:40;;;;;;;16.85;3.53;;;9.20;95.10;;;;;;5127782;27;38115;-61
2021/12/19 13:27:11;;;;;;;14.05;2.92;;;9.10;95.20;;;;;;5127494;27;38402;-61
2021/12/19 13:29:40;;;;;;;18.35;3.13;;;9.20;95.20;;;;;;5128890;27;36304;-61
2021/12/19 13:32:28;;;;;;;17.30;2.72;;;9.20;95.30;;;;;;5128048;27;37564;-61
2021/12/19 13:34:56;;;;;;;13.63;2.88;;;9.20;95.10;;;;;;5127786;27;37531;-61
2021/12/19 13:37:26;;;;;;;20.67;3.22;;;9.20;95.10;;;;;;5127537;27;36469;-61
2021/12/19 13:40:04;;;;;;;14.25;2.75;;;9.20;95.10;;;;;;5126845;27;37425;-61
2021/12/19 13:42:49;;;;;;;21.15;3.13;;;9.20;95.00;;;;;;5127996;27;38893;-61
2021/12/19 13:45:32;;;;;;;27.02;3.35;;;9.20;95.10;;;;;;5125949;27;37402;-60
2021/12/19 13:48:02;;;;;;;18.88;3.67;;;9.20;95.10;;;;;;5128003;27;38258;-60
2021/12/19 13:50:32;;;;;;;24.02;3.75;;;9.30;95.10;;;;;;5127011;27;36942;-60
2021/12/19 13:53:01;;;;;;;18.02;3.03;;;9.20;95.20;;;;;;5127060;27;37797;-60
2021/12/19 13:55:28;;;;;;;15.93;3.17;;;9.30;95.20;;;;;;5127445;27;36594;-60
2021/12/19 13:58:06;;;;;;;18.20;2.88;;;9.30;95.20;;;;;;5127620;27;37885;-60
2021/12/19 14:00:37;;;;;;;18.15;2.72;;;9.20;95.20;;;;;;5126932;27;36419;-60
2021/12/19 14:03:04;;;;;;;13.07;2.15;;;9.20;95.20;;;;;;5127742;27;38679;-60